createdAt,value
2023-04-26T00:01:52.947Z,67.74
2023-04-26T00:04:27.759Z,65.79
2023-04-26T00:06:56.007Z,67.17
2023-04-26T00:12:17.219Z,65.29
2023-04-26T00:14:51.683Z,65.17
2023-04-26T00:17:27.005Z,65.84
2023-04-26T00:19:50.167Z,66.11
2023-04-26T00:22:24.965Z,64.96
2023-04-26T00:24:52.851Z,65.39
2023-04-26T00:27:27.722Z,65.56
2023-04-26T00:29:55.820Z,66.34
2023-04-26T00:32:29.189Z,65.30
2023-04-26T00:35:04.248Z,64.74
2023-04-26T00:37:39.631Z,64.72
2023-04-26T00:40:18.686Z,65.45
2023-04-26T00:43:00.866Z,65.89
2023-04-26T00:45:35.647Z,66.04
2023-04-26T00:48:04.757Z,65.01
2023-04-26T00:50:39.348Z,64.83
2023-04-26T00:53:11.585Z,65.41
2023-04-26T00:55:47.916Z,65.56
2023-04-26T00:58:22.551Z,66.05
2023-04-26T01:00:57.450Z,65.80
2023-04-26T01:03:32.719Z,65.90
2023-04-26T01:06:01.562Z,66.26
2023-04-26T01:08:38.027Z,66.24
2023-04-26T01:11:07.278Z,66.64
2023-04-26T01:13:32.320Z,67.15
2023-04-26T01:16:08.522Z,67.08
2023-04-26T01:18:37.370Z,67.42
2023-04-26T01:21:12.717Z,67.81
2023-04-26T01:23:48.125Z,67.78
2023-04-26T01:26:22.448Z,67.49
2023-04-26T01:28:48.467Z,67.56
2023-04-26T01:31:23.536Z,67.72
2023-04-26T01:33:48.437Z,67.81
2023-04-26T01:36:18.767Z,67.79
2023-04-26T01:38:44.027Z,68.08
2023-04-26T01:41:20.383Z,68.23
2023-04-26T01:43:48.914Z,68.32
2023-04-26T01:46:22.959Z,68.30
2023-04-26T01:48:58.541Z,68.75
2023-04-26T01:51:33.082Z,68.89
2023-04-26T01:54:08.524Z,68.83
2023-04-26T01:56:43.029Z,68.98
2023-04-26T01:59:10.536Z,69.15
2023-04-26T02:01:38.661Z,69.01
2023-04-26T02:04:07.061Z,69.39
2023-04-26T02:06:40.823Z,69.08
2023-04-26T02:09:16.923Z,68.78
2023-04-26T02:11:52.530Z,68.76
2023-04-26T02:14:27.504Z,68.86
2023-04-26T02:17:02.595Z,69.01
2023-04-26T02:19:25.730Z,69.18
2023-04-26T02:22:01.923Z,69.27
2023-04-26T02:24:27.525Z,69.54
2023-04-26T02:27:05.016Z,69.85
2023-04-26T02:29:43.162Z,69.98
2023-04-26T02:32:02.852Z,70.57
2023-04-26T02:34:37.305Z,70.46
2023-04-26T02:37:12.281Z,70.74
2023-04-26T02:39:47.167Z,70.74
2023-04-26T02:42:23.747Z,70.95
2023-04-26T02:44:51.420Z,71.25
2023-04-26T02:47:20.467Z,71.14
2023-04-26T02:49:54.479Z,70.89
2023-04-26T02:52:29.335Z,71.19
2023-04-26T02:54:55.824Z,71.16
2023-04-26T02:57:19.413Z,71.11
2023-04-26T02:59:57.823Z,71.09
2023-04-26T03:02:21.783Z,71.41
2023-04-26T03:04:50.974Z,71.37
2023-04-26T03:07:15.014Z,71.63
2023-04-26T03:09:52.332Z,71.77
2023-04-26T03:12:21.231Z,71.75
2023-04-26T03:15:06.524Z,71.62
2023-04-26T03:17:40.585Z,71.70
2023-04-26T03:20:02.785Z,71.97
2023-04-26T03:22:27.073Z,71.95
2023-04-26T03:24:41.601Z,71.90
2023-04-26T03:27:05.811Z,72.23
2023-04-26T03:29:26.369Z,72.17
2023-04-26T03:32:02.092Z,72.11
2023-04-26T03:34:28.664Z,72.21
2023-04-26T03:36:54.990Z,72.46
2023-04-26T03:39:30.691Z,72.52
2023-04-26T03:41:58.147Z,72.59
2023-04-26T03:44:24.596Z,72.61
2023-04-26T03:46:54.804Z,72.81
2023-04-26T03:49:23.220Z,72.86
2023-04-26T03:51:58.345Z,72.95
2023-04-26T03:54:33.199Z,73.03
2023-04-26T03:57:08.136Z,73.12
2023-04-26T03:59:36.155Z,73.32
2023-04-26T04:02:02.741Z,73.26
2023-04-26T04:04:28.833Z,73.28
2023-04-26T04:06:49.331Z,73.32
2023-04-26T04:09:24.050Z,73.32
2023-04-26T04:11:51.858Z,73.51
2023-04-26T04:14:27.244Z,73.46
2023-04-26T04:17:02.113Z,73.60
2023-04-26T04:19:37.281Z,73.72
2023-04-26T04:22:12.464Z,73.83
2023-04-26T04:24:38.925Z,73.87
2023-04-26T04:27:02.924Z,73.97
2023-04-26T04:29:25.103Z,74.15
2023-04-26T04:31:53.633Z,74.18
2023-04-26T04:34:22.680Z,74.27
2023-04-26T04:36:57.105Z,74.46
2023-04-26T04:39:32.356Z,74.34
2023-04-26T04:41:56.276Z,74.43
2023-04-26T04:44:31.233Z,74.55
2023-04-26T04:47:07.194Z,74.72
2023-04-26T04:49:43.173Z,74.68
2023-04-26T04:52:19.046Z,74.90
2023-04-26T04:54:54.678Z,75.13
2023-04-26T04:57:29.838Z,75.32
2023-04-26T04:59:58.458Z,75.49
2023-04-26T05:02:29.975Z,75.77
2023-04-26T05:04:53.038Z,75.93
2023-04-26T05:07:29.141Z,76.06
2023-04-26T05:10:05.500Z,76.24
2023-04-26T05:12:33.030Z,76.40
2023-04-26T05:15:07.360Z,76.37
2023-04-26T05:17:41.484Z,76.51
2023-04-26T05:20:21.168Z,76.68
2023-04-26T05:22:56.051Z,76.85
2023-04-26T05:25:30.849Z,76.87
2023-04-26T05:27:54.225Z,76.90
2023-04-26T05:33:32.369Z,77.11
2023-04-26T05:36:17.148Z,77.04
2023-04-26T05:38:45.697Z,77.20
2023-04-26T05:41:14.317Z,77.23
2023-04-26T05:43:42.874Z,77.40
2023-04-26T05:46:06.859Z,77.54
2023-04-26T05:48:41.134Z,77.57
2023-04-26T05:51:08.486Z,77.75
2023-04-26T05:53:43.277Z,77.93
2023-04-26T05:56:19.339Z,78.14
2023-04-26T05:58:52.064Z,78.24
2023-04-26T06:01:27.148Z,78.42
2023-04-26T06:04:05.261Z,78.46
2023-04-26T06:06:41.225Z,78.97
2023-04-26T06:09:17.370Z,78.85
2023-04-26T06:11:45.661Z,78.86
2023-04-26T06:14:23.136Z,78.89
2023-04-26T06:17:03.911Z,78.90
2023-04-26T06:19:39.313Z,78.96
2023-04-26T06:22:07.627Z,79.09
2023-04-26T06:24:43.980Z,78.95
2023-04-26T06:27:17.545Z,78.76
2023-04-26T06:29:49.832Z,78.60
2023-04-26T06:32:13.177Z,78.58
2023-04-26T06:34:48.419Z,78.59
2023-04-26T06:37:25.026Z,78.72
2023-04-26T06:39:59.843Z,78.63
2023-04-26T06:42:32.467Z,78.71
2023-04-26T06:45:04.725Z,78.81
2023-04-26T06:47:33.938Z,78.91
2023-04-26T06:50:08.086Z,79.08
2023-04-26T06:52:37.943Z,79.20
2023-04-26T06:55:04.726Z,79.41
2023-04-26T06:57:39.428Z,79.71
2023-04-26T07:00:07.603Z,79.79
2023-04-26T07:02:42.188Z,79.92
2023-04-26T07:05:07.608Z,80.03
2023-04-26T07:07:43.770Z,80.01
2023-04-26T07:10:18.535Z,79.92
2023-04-26T07:12:53.487Z,79.98
2023-04-26T07:15:28.726Z,80.02
2023-04-26T07:18:03.776Z,80.09
2023-04-26T07:20:38.947Z,80.22
2023-04-26T07:23:05.824Z,80.29
2023-04-26T07:25:41.189Z,80.26
2023-04-26T07:28:15.987Z,80.23
2023-04-26T07:30:40.431Z,80.37
2023-04-26T07:33:14.473Z,80.57
2023-04-26T07:35:38.093Z,80.79
2023-04-26T07:38:13.456Z,81.54
2023-04-26T07:40:48.774Z,81.64
2023-04-26T07:43:45.479Z,81.76
2023-04-26T07:46:09.998Z,81.72
2023-04-26T07:48:45.323Z,81.82
2023-04-26T07:51:22.810Z,81.94
2023-04-26T07:53:58.742Z,82.03
2023-04-26T07:56:27.860Z,82.30
2023-04-26T07:58:55.215Z,82.48
2023-04-26T08:01:23.530Z,82.52
2023-04-26T08:03:47.189Z,82.85
2023-04-26T08:06:25.431Z,83.14
2023-04-26T08:08:55.767Z,83.10
2023-04-26T08:11:31.724Z,83.12
2023-04-26T08:13:58.064Z,83.05
2023-04-26T08:16:21.202Z,83.07
2023-04-26T08:18:50.165Z,83.01
2023-04-26T08:21:26.284Z,83.12
2023-04-26T08:24:01.347Z,82.98
2023-04-26T08:26:33.123Z,83.00
2023-04-26T08:29:01.028Z,82.59
2023-04-26T08:31:30.355Z,82.53
2023-04-26T08:34:04.312Z,82.50
2023-04-26T08:36:43.916Z,82.69
2023-04-26T08:39:19.047Z,82.99
2023-04-26T08:41:57.731Z,83.04
2023-04-26T08:44:32.408Z,83.05
2023-04-26T08:47:13.965Z,83.22
2023-04-26T08:49:49.135Z,83.23
2023-04-26T08:52:17.120Z,83.49
2023-04-26T08:54:54.796Z,83.78
2023-04-26T08:57:29.846Z,83.74
2023-04-26T09:00:07.215Z,83.55
2023-04-26T09:02:32.902Z,83.70
2023-04-26T09:05:01.949Z,83.52
2023-04-26T09:07:30.608Z,83.46
2023-04-26T09:10:08.173Z,83.45
2023-04-26T09:12:43.517Z,83.23
2023-04-26T09:15:18.246Z,83.19
2023-04-26T09:17:43.974Z,83.16
2023-04-26T09:20:21.837Z,83.01
2023-04-26T09:22:58.653Z,83.10
2023-04-26T09:25:39.946Z,82.94
2023-04-26T09:28:27.198Z,82.73
2023-04-26T09:31:03.350Z,82.61
2023-04-26T09:33:38.044Z,82.41
2023-04-26T09:36:20.284Z,82.23
2023-04-26T09:38:49.115Z,82.13
2023-04-26T09:41:13.834Z,82.21
2023-04-26T09:43:43.473Z,82.18
2023-04-26T09:46:26.080Z,82.32
2023-04-26T09:49:07.045Z,82.35
2023-04-26T09:51:42.500Z,82.27
2023-04-26T09:54:10.137Z,82.44
2023-04-26T09:56:38.533Z,82.37
2023-04-26T09:59:13.307Z,82.45
2023-04-26T10:01:48.211Z,82.47
2023-04-26T10:04:22.856Z,82.42
2023-04-26T10:06:48.701Z,82.42
2023-04-26T10:09:15.249Z,82.55
2023-04-26T10:11:45.812Z,82.69
2023-04-26T10:14:20.764Z,82.76
2023-04-26T10:16:52.007Z,82.88
2023-04-26T10:19:21.403Z,82.97
2023-04-26T10:21:54.135Z,83.04
2023-04-26T10:24:30.982Z,83.06
2023-04-26T10:27:00.862Z,83.13
2023-04-26T10:30:15.318Z,83.22
2023-04-26T10:32:58.586Z,82.91
2023-04-26T10:35:34.596Z,82.89
2023-04-26T10:38:19.285Z,82.69
2023-04-26T10:40:49.114Z,82.65
2023-04-26T10:43:36.885Z,82.82
2023-04-26T10:46:41.963Z,82.74
2023-04-26T10:49:26.458Z,82.78
2023-04-26T10:52:21.213Z,82.71
2023-04-26T10:55:01.818Z,82.71
2023-04-26T10:57:53.547Z,82.76
2023-04-26T11:00:36.436Z,83.09
2023-04-26T11:03:17.475Z,83.00
2023-04-26T11:06:10.837Z,83.13
2023-04-26T11:08:36.795Z,83.32
2023-04-26T11:11:20.804Z,83.46
2023-04-26T11:13:47.588Z,83.31
2023-04-26T11:16:11.887Z,83.27
2023-04-26T11:18:47.888Z,83.35
2023-04-26T11:21:25.299Z,83.31
2023-04-26T11:24:02.898Z,83.44
2023-04-26T11:26:41.868Z,83.48
2023-04-26T11:29:11.049Z,83.40
2023-04-26T11:31:44.137Z,83.48
2023-04-26T11:34:17.918Z,83.55
2023-04-26T11:36:52.313Z,83.59
2023-04-26T11:39:29.318Z,83.79
2023-04-26T11:42:12.466Z,83.66
2023-04-26T11:44:48.062Z,83.54
2023-04-26T11:47:22.654Z,83.47
2023-04-26T11:49:57.618Z,83.33
2023-04-26T11:52:34.746Z,83.46
2023-04-26T11:57:54.089Z,83.83
2023-04-26T12:00:31.188Z,83.61
2023-04-26T12:03:12.694Z,83.74
2023-04-26T12:05:58.181Z,83.77
2023-04-26T12:08:27.082Z,83.66
2023-04-26T12:11:07.106Z,83.78
2023-04-26T12:13:35.446Z,83.68
2023-04-26T12:16:25.668Z,83.46
2023-04-26T12:18:56.779Z,83.17
2023-04-26T12:21:30.731Z,83.44
2023-04-26T12:24:05.202Z,83.33
2023-04-26T12:26:25.446Z,83.47
2023-04-26T12:29:00.678Z,83.60
2023-04-26T12:31:35.447Z,83.77
2023-04-26T12:34:10.967Z,83.86
2023-04-26T12:36:34.128Z,83.82
2023-04-26T12:39:09.038Z,83.99
2023-04-26T12:41:44.296Z,83.96
2023-04-26T12:44:22.114Z,83.98
2023-04-26T12:46:57.777Z,84.09
2023-04-26T12:49:24.958Z,83.93
2023-04-26T12:51:59.662Z,84.01
2023-04-26T12:54:24.754Z,83.84
2023-04-26T12:56:59.502Z,84.02
2023-04-26T12:59:36.048Z,84.16
2023-04-26T13:02:11.515Z,84.24
2023-04-26T13:04:47.567Z,84.33
2023-04-26T13:07:15.686Z,84.27
2023-04-26T13:09:52.933Z,84.54
2023-04-26T13:12:28.970Z,84.78
2023-04-26T13:15:05.605Z,84.83
2023-04-26T13:17:39.034Z,84.86
2023-04-26T13:20:15.320Z,84.74
2023-04-26T13:22:49.568Z,84.65
2023-04-26T13:25:24.634Z,84.81
2023-04-26T13:27:59.520Z,84.53
2023-04-26T13:30:34.416Z,84.63
2023-04-26T13:33:09.581Z,84.75
2023-04-26T13:35:45.708Z,85.13
2023-04-26T13:38:20.274Z,85.14
2023-04-26T13:40:54.338Z,85.04
2023-04-26T13:43:29.811Z,85.10
2023-04-26T13:46:04.829Z,85.06
2023-04-26T13:48:40.216Z,85.26
2023-04-26T13:51:16.209Z,85.44
2023-04-26T13:53:52.666Z,85.49
2023-04-26T13:56:28.066Z,85.60
2023-04-26T13:59:07.666Z,85.73
2023-04-26T14:01:44.513Z,86.05
2023-04-26T14:04:22.013Z,85.98
2023-04-26T14:06:56.964Z,86.07
2023-04-26T14:09:31.891Z,86.25
2023-04-26T14:12:09.018Z,86.28
2023-04-26T14:14:44.388Z,86.14
2023-04-26T14:17:22.552Z,86.15
2023-04-26T14:19:56.833Z,86.29
2023-04-26T14:22:31.807Z,86.05
2023-04-26T14:25:05.827Z,86.03
2023-04-26T14:27:42.667Z,85.95
2023-04-26T14:30:22.174Z,86.31
2023-04-26T14:32:45.841Z,86.30
2023-04-26T14:35:10.158Z,86.58
2023-04-26T14:37:38.405Z,86.81
2023-04-26T14:40:09.401Z,86.95
2023-04-26T14:42:47.132Z,87.13
2023-04-26T14:45:30.382Z,87.24
2023-04-26T14:48:07.998Z,87.31
2023-04-26T14:50:37.539Z,87.48
2023-04-26T14:53:04.344Z,87.73
2023-04-26T14:55:39.507Z,87.97
2023-04-26T14:58:13.697Z,88.09
2023-04-26T15:00:38.071Z,88.12
2023-04-26T15:03:13.495Z,88.32
2023-04-26T15:05:41.115Z,88.41
2023-04-26T15:08:06.199Z,88.58
2023-04-26T15:10:40.377Z,88.62
2023-04-26T15:13:10.114Z,88.56
2023-04-26T15:15:45.529Z,88.67
2023-04-26T15:18:19.784Z,88.94
2023-04-26T15:20:54.516Z,89.18
2023-04-26T15:23:30.586Z,89.24
2023-04-26T15:25:57.176Z,89.34
2023-04-26T15:28:24.681Z,89.27
2023-04-26T15:30:53.130Z,89.23
2023-04-26T15:33:28.712Z,88.75
2023-04-26T15:35:57.738Z,88.14
2023-04-26T15:38:24.004Z,85.10
2023-04-26T15:40:52.353Z,85.10
2023-04-26T15:43:20.882Z,85.57
2023-04-26T15:45:54.469Z,85.99
2023-04-26T15:48:29.354Z,86.37
2023-04-26T15:51:07.962Z,86.41
2023-04-26T15:53:32.015Z,86.07
2023-04-26T15:56:06.369Z,86.45
2023-04-26T15:58:35.200Z,86.82
2023-04-26T16:01:04.883Z,87.01
2023-04-26T16:03:33.038Z,86.85
2023-04-26T16:06:10.016Z,86.73
2023-04-26T16:08:45.258Z,85.92
2023-04-26T16:11:20.038Z,85.65
2023-04-26T16:13:57.046Z,85.65
2023-04-26T16:16:31.021Z,85.26
2023-04-26T16:19:07.101Z,85.34
2023-04-26T16:21:42.390Z,84.45
2023-04-26T16:24:17.732Z,84.15
2023-04-26T16:26:54.858Z,84.42
2023-04-26T16:29:28.293Z,83.05
2023-04-26T16:32:03.550Z,82.83
2023-04-26T16:34:37.998Z,82.61
2023-04-26T16:37:16.068Z,82.45
2023-04-26T16:39:50.599Z,82.55
2023-04-26T16:42:25.118Z,82.39
2023-04-26T16:45:01.736Z,82.65
2023-04-26T16:47:25.332Z,82.90
2023-04-26T16:49:59.431Z,82.92
2023-04-26T16:52:24.471Z,82.70
2023-04-26T16:55:00.989Z,82.55
2023-04-26T16:57:24.569Z,82.47
2023-04-26T16:59:59.328Z,82.36
2023-04-26T17:02:34.755Z,82.82
2023-04-26T17:05:11.367Z,82.46
2023-04-26T17:07:45.876Z,81.74
2023-04-26T17:10:22.784Z,80.04
2023-04-26T17:12:57.407Z,80.81
2023-04-26T17:15:32.145Z,80.02
2023-04-26T17:17:55.964Z,78.07
2023-04-26T17:20:32.613Z,75.78
2023-04-26T17:23:10.911Z,73.46
2023-04-26T17:25:48.203Z,72.96
2023-04-26T17:28:22.978Z,73.49
2023-04-26T17:30:57.707Z,72.94
2023-04-26T17:33:32.824Z,72.66
2023-04-26T17:36:08.500Z,73.53
2023-04-26T17:38:42.704Z,72.70
2023-04-26T17:41:09.342Z,73.48
2023-04-26T17:43:37.329Z,73.02
2023-04-26T17:46:12.625Z,73.79
2023-04-26T17:48:46.323Z,73.66
2023-04-26T17:51:13.982Z,74.40
2023-04-26T17:53:50.088Z,74.83
2023-04-26T17:56:24.958Z,75.39
2023-04-26T17:58:58.692Z,75.24
2023-04-26T18:01:33.977Z,74.78
2023-04-26T18:04:09.450Z,75.32
2023-04-26T18:06:43.843Z,76.06
2023-04-26T18:09:18.292Z,75.90
2023-04-26T18:11:53.123Z,75.91
2023-04-26T18:14:26.888Z,75.29
2023-04-26T18:17:02.861Z,75.88
2023-04-26T18:19:30.531Z,76.33
2023-04-26T18:21:56.144Z,76.61
2023-04-26T18:24:31.849Z,76.67
2023-04-26T18:26:54.474Z,77.25
2023-04-26T18:29:30.099Z,76.73
2023-04-26T18:32:05.166Z,76.29
2023-04-26T18:34:40.055Z,76.55
2023-04-26T18:37:04.207Z,76.37
2023-04-26T18:39:33.570Z,76.32
2023-04-26T18:41:56.884Z,76.80
2023-04-26T18:44:19.894Z,76.74
2023-04-26T18:46:56.776Z,76.95
2023-04-26T18:49:31.923Z,76.93
2023-04-26T18:52:01.347Z,76.71
2023-04-26T18:54:23.751Z,76.27
2023-04-26T18:56:59.770Z,76.29
2023-04-26T18:59:34.886Z,76.14
2023-04-26T19:02:11.483Z,75.84
2023-04-26T19:04:35.507Z,76.15
2023-04-26T19:07:04.735Z,75.22
2023-04-26T19:09:53.032Z,75.49
2023-04-26T19:12:23.175Z,75.90
2023-04-26T19:14:52.161Z,75.83
2023-04-26T19:17:27.659Z,76.42
2023-04-26T19:20:03.520Z,76.40
2023-04-26T19:22:38.236Z,76.33
2023-04-26T19:25:07.266Z,75.44
2023-04-26T19:27:40.673Z,75.79
2023-04-26T19:30:16.969Z,75.98
2023-04-26T19:32:42.110Z,75.92
2023-04-26T19:35:18.967Z,75.86
2023-04-26T19:37:48.368Z,75.67
2023-04-26T19:40:23.880Z,75.44
2023-04-26T19:42:57.541Z,76.06
2023-04-26T19:45:33.242Z,75.34
2023-04-26T19:48:01.672Z,74.13
2023-04-26T19:50:25.512Z,74.36
2023-04-26T19:53:00.707Z,74.83
2023-04-26T19:55:32.064Z,74.73
2023-04-26T19:58:01.148Z,74.69
2023-04-26T20:00:37.471Z,74.39
2023-04-26T20:03:06.441Z,74.29
2023-04-26T20:05:42.399Z,72.85
2023-04-26T20:08:18.550Z,72.81
2023-04-26T20:10:54.749Z,72.07
2023-04-26T20:13:19.178Z,72.54
2023-04-26T20:15:53.268Z,72.63
2023-04-26T20:18:16.653Z,72.42
2023-04-26T20:20:45.186Z,72.20
2023-04-26T20:23:11.027Z,71.23
2023-04-26T20:25:35.526Z,70.71
2023-04-26T20:28:10.161Z,70.90
2023-04-26T20:30:43.817Z,71.00
2023-04-26T20:33:19.664Z,71.31
2023-04-26T20:35:44.334Z,67.58
2023-04-26T20:38:20.277Z,67.31
2023-04-26T20:40:48.073Z,68.79
2023-04-26T20:43:22.742Z,69.52
2023-04-26T20:45:56.799Z,68.19
2023-04-26T20:48:32.000Z,67.55
2023-04-26T20:51:06.008Z,66.24
2023-04-26T20:53:33.898Z,65.81
2023-04-26T20:56:03.630Z,66.40
2023-04-26T20:58:29.216Z,63.60
2023-04-26T21:01:06.501Z,63.72
2023-04-26T21:03:36.321Z,63.55
2023-04-26T21:06:10.954Z,63.72
2023-04-26T21:08:45.727Z,63.63
2023-04-26T21:11:13.087Z,63.87
2023-04-26T21:13:49.755Z,62.96
2023-04-26T21:16:24.064Z,62.96
2023-04-26T21:18:59.059Z,64.51
2023-04-26T21:21:33.980Z,65.10
2023-04-26T21:24:15.617Z,65.71
2023-04-26T21:26:51.987Z,66.26
2023-04-26T21:29:28.321Z,65.70
2023-04-26T21:32:03.026Z,66.21
2023-04-26T21:34:37.926Z,65.88
2023-04-26T21:37:13.237Z,64.93
2023-04-26T21:39:49.576Z,63.98
2023-04-26T21:42:12.237Z,63.25
2023-04-26T21:44:48.760Z,64.63
2023-04-26T21:47:23.531Z,65.35
2023-04-26T21:49:59.407Z,66.15
2023-04-26T21:52:33.978Z,66.45
2023-04-26T21:54:57.697Z,67.12
2023-04-26T21:57:25.496Z,67.83
2023-04-26T22:00:01.147Z,68.14
2023-04-26T22:02:29.029Z,68.08
2023-04-26T22:04:57.636Z,68.49
2023-04-26T22:07:22.377Z,68.45
2023-04-26T22:09:56.190Z,68.59
2023-04-26T22:12:31.248Z,68.52
2023-04-26T22:15:05.760Z,68.84
2023-04-26T22:17:41.385Z,68.84
2023-04-26T22:20:10.387Z,68.82
2023-04-26T22:22:38.455Z,68.79
2023-04-26T22:25:01.606Z,69.05
2023-04-26T22:27:38.747Z,68.86
2023-04-26T22:30:25.386Z,67.75
2023-04-26T22:33:05.084Z,67.53
2023-04-26T22:35:40.265Z,67.90
2023-04-26T22:38:08.276Z,68.55
2023-04-26T22:40:43.635Z,68.16
2023-04-26T22:43:17.977Z,68.27
2023-04-26T22:45:41.681Z,69.07
2023-04-26T22:48:17.135Z,68.89
2023-04-26T22:50:53.267Z,69.30
2023-04-26T22:53:21.137Z,68.99
2023-04-26T22:55:57.123Z,68.66
2023-04-26T22:58:32.684Z,67.68
2023-04-26T23:00:59.979Z,66.53
2023-04-26T23:03:34.692Z,65.15
2023-04-26T23:06:10.355Z,65.00
2023-04-26T23:08:45.329Z,66.45
2023-04-26T23:11:22.407Z,65.41
2023-04-26T23:13:53.968Z,65.14
2023-04-26T23:16:19.181Z,64.39
2023-04-26T23:18:53.447Z,64.21
2023-04-26T23:21:31.816Z,64.33
2023-04-26T23:24:06.190Z,65.41
2023-04-26T23:26:41.512Z,63.22
2023-04-26T23:29:09.387Z,62.91
2023-04-26T23:31:43.631Z,61.77
2023-04-26T23:34:00.840Z,61.22
2023-04-26T23:36:24.369Z,61.38
2023-04-26T23:38:53.736Z,63.02
2023-04-26T23:41:18.146Z,63.91
2023-04-26T23:43:52.484Z,63.12
2023-04-26T23:46:16.102Z,60.62
2023-04-26T23:48:53.250Z,59.31
2023-04-26T23:51:12.379Z,59.28
2023-04-26T23:53:47.847Z,59.02
2023-04-26T23:56:17.682Z,59.07
2023-04-26T23:58:44.967Z,59.17
